createdAt,value
2023-01-03T00:01:31.150Z,0.80
2023-01-03T00:04:19.439Z,0.77
2023-01-03T00:06:53.263Z,0.70
2023-01-03T00:09:29.746Z,0.57
2023-01-03T00:12:15.174Z,0.60
2023-01-03T00:14:46.133Z,0.75
2023-01-03T00:17:13.458Z,0.65
2023-01-03T00:19:46.141Z,0.68
2023-01-03T00:22:14.175Z,0.73
2023-01-03T00:24:41.164Z,0.88
2023-01-03T00:27:16.635Z,0.55
2023-01-03T00:29:44.289Z,0.65
2023-01-03T00:32:15.373Z,0.70
2023-01-03T00:34:47.215Z,0.63
2023-01-03T00:37:15.019Z,0.70
2023-01-03T00:39:48.454Z,0.90
2023-01-03T00:42:15.656Z,0.68
2023-01-03T00:44:45.977Z,0.70
2023-01-03T00:47:12.994Z,0.70
2023-01-03T00:49:40.175Z,0.88
2023-01-03T00:52:10.921Z,0.80
2023-01-03T00:54:41.142Z,0.55
2023-01-03T00:57:08.219Z,0.68
2023-01-03T00:59:38.813Z,0.70
2023-01-03T01:02:09.259Z,0.70
2023-01-03T01:04:36.542Z,0.68
2023-01-03T01:07:06.536Z,0.60
2023-01-03T01:09:34.905Z,0.70
2023-01-03T01:12:05.538Z,0.70
2023-01-03T01:14:36.351Z,0.60
2023-01-03T01:17:07.981Z,0.60
2023-01-03T01:19:36.525Z,0.60
2023-01-03T01:22:07.058Z,0.60
2023-01-03T01:24:36.455Z,0.63
2023-01-03T01:27:03.986Z,0.73
2023-01-03T01:29:31.440Z,0.50
2023-01-03T01:32:02.178Z,0.68
2023-01-03T01:34:32.498Z,0.50
2023-01-03T01:37:03.166Z,0.82
2023-01-03T01:39:30.926Z,0.65
2023-01-03T01:42:20.018Z,0.70
2023-01-03T01:44:55.123Z,0.52
2023-01-03T01:47:31.130Z,0.60
2023-01-03T01:50:06.218Z,0.50
2023-01-03T01:52:34.577Z,0.80
2023-01-03T01:55:05.482Z,0.75
2023-01-03T01:57:33.485Z,0.80
2023-01-03T02:00:05.162Z,0.60
2023-01-03T02:02:32.210Z,0.40
2023-01-03T02:05:00.974Z,0.60
2023-01-03T02:07:28.060Z,0.57
2023-01-03T02:09:57.479Z,0.70
2023-01-03T02:12:55.124Z,0.50
2023-01-03T02:15:30.453Z,0.75
2023-01-03T02:18:14.928Z,0.80
2023-01-03T02:20:55.483Z,0.50
2023-01-03T02:23:28.572Z,0.65
2023-01-03T02:26:01.863Z,0.65
2023-01-03T02:28:47.378Z,0.65
2023-01-03T02:31:18.160Z,0.65
2023-01-03T02:34:03.787Z,0.63
2023-01-03T02:36:33.775Z,0.57
2023-01-03T02:39:06.968Z,0.60
2023-01-03T02:41:52.245Z,0.60
2023-01-03T02:44:23.973Z,0.50
2023-01-03T02:46:57.589Z,0.50
2023-01-03T02:49:41.296Z,0.60
2023-01-03T02:52:13.654Z,0.47
2023-01-03T02:54:54.902Z,0.55
2023-01-03T02:57:31.578Z,0.50
2023-01-03T03:00:03.179Z,0.55
2023-01-03T03:02:33.261Z,0.52
2023-01-03T03:05:01.615Z,0.60
2023-01-03T03:07:33.017Z,0.50
2023-01-03T03:10:18.495Z,0.50
2023-01-03T03:13:07.291Z,0.50
2023-01-03T03:15:36.697Z,0.55
2023-01-03T03:18:10.460Z,0.50
2023-01-03T03:20:55.799Z,0.70
2023-01-03T03:23:44.637Z,0.40
2023-01-03T03:26:23.756Z,0.47
2023-01-03T03:28:55.328Z,0.60
2023-01-03T03:31:25.240Z,0.70
2023-01-03T03:33:53.372Z,0.70
2023-01-03T03:36:25.897Z,0.70
2023-01-03T03:38:52.935Z,0.60
2023-01-03T03:41:44.214Z,0.50
2023-01-03T03:44:38.604Z,0.57
2023-01-03T03:47:11.055Z,0.50
2023-01-03T03:49:47.890Z,0.63
2023-01-03T03:52:22.737Z,0.43
2023-01-03T03:54:58.774Z,0.40
2023-01-03T03:57:29.226Z,0.43
2023-01-03T04:00:01.869Z,0.40
2023-01-03T04:02:32.861Z,0.50
2023-01-03T04:05:04.297Z,0.68
2023-01-03T04:07:37.855Z,0.45
2023-01-03T04:10:08.986Z,0.50
2023-01-03T04:12:37.092Z,0.50
2023-01-03T04:15:07.346Z,0.50
2023-01-03T04:17:40.707Z,0.43
2023-01-03T04:20:12.019Z,0.50
2023-01-03T04:22:45.424Z,0.60
2023-01-03T04:25:15.654Z,0.50
2023-01-03T04:27:45.900Z,0.65
2023-01-03T04:30:13.307Z,0.65
2023-01-03T04:32:40.485Z,0.50
2023-01-03T04:35:12.980Z,0.63
2023-01-03T04:37:46.016Z,0.40
2023-01-03T04:40:16.009Z,0.60
2023-01-03T04:43:03.856Z,0.52
2023-01-03T04:45:34.926Z,0.77
2023-01-03T04:48:02.537Z,0.47
2023-01-03T04:50:35.775Z,0.60
2023-01-03T04:53:03.247Z,0.60
2023-01-03T04:55:36.252Z,0.57
2023-01-03T04:58:07.152Z,0.50
2023-01-03T05:00:39.324Z,0.50
2023-01-03T05:03:09.336Z,0.50
2023-01-03T05:05:46.173Z,0.65
2023-01-03T05:08:13.243Z,0.68
2023-01-03T05:10:46.016Z,0.45
2023-01-03T05:13:16.184Z,0.77
2023-01-03T05:15:49.756Z,0.60
2023-01-03T05:18:21.460Z,0.50
2023-01-03T05:21:09.794Z,0.50
2023-01-03T05:23:55.508Z,0.70
2023-01-03T05:26:24.137Z,0.75
2023-01-03T05:28:55.820Z,0.57
2023-01-03T05:31:23.344Z,0.57
2023-01-03T05:33:50.337Z,0.50
2023-01-03T05:36:24.172Z,0.68
2023-01-03T05:38:54.623Z,0.60
2023-01-03T05:41:40.862Z,0.63
2023-01-03T05:44:14.006Z,0.70
2023-01-03T05:46:48.026Z,0.60
2023-01-03T05:49:15.048Z,0.60
2023-01-03T05:51:45.652Z,0.50
2023-01-03T05:54:18.901Z,0.47
2023-01-03T05:56:49.502Z,0.47
2023-01-03T05:59:23.181Z,0.60
2023-01-03T06:01:51.502Z,0.50
2023-01-03T06:04:22.059Z,0.63
2023-01-03T07:02:24.505Z,0.70
2023-01-03T07:04:52.144Z,0.60
2023-01-03T07:07:19.305Z,0.50
2023-01-03T07:09:48.812Z,0.50
2023-01-03T07:12:37.050Z,0.50
2023-01-03T07:15:04.212Z,0.60
2023-01-03T07:17:34.614Z,0.50
2023-01-03T07:20:03.071Z,0.82
2023-01-03T07:22:32.346Z,0.60
2023-01-03T07:25:02.031Z,0.50
2023-01-03T07:27:38.412Z,0.50
2023-01-03T07:30:08.444Z,0.50
2023-01-03T07:32:35.422Z,0.40
2023-01-03T07:35:07.540Z,0.68
2023-01-03T07:37:43.342Z,0.50
2023-01-03T07:40:10.642Z,0.75
2023-01-03T07:42:55.981Z,0.50
2023-01-03T07:45:23.976Z,0.60
2023-01-03T07:47:54.974Z,0.80
2023-01-03T07:50:25.923Z,0.50
2023-01-03T07:52:54.907Z,0.70
2023-01-03T07:55:23.013Z,0.68
2023-01-03T07:57:50.013Z,0.65
2023-01-03T08:00:19.739Z,0.50
2023-01-03T08:02:46.948Z,0.60
2023-01-03T08:05:14.619Z,0.60
2023-01-03T08:07:47.134Z,0.60
2023-01-03T08:10:32.754Z,0.60
2023-01-03T08:13:17.739Z,0.50
2023-01-03T08:15:45.968Z,0.70
2023-01-03T08:18:13.568Z,0.50
2023-01-03T08:20:43.136Z,0.70
2023-01-03T08:23:11.458Z,0.55
2023-01-03T08:25:41.818Z,0.60
2023-01-03T08:28:12.142Z,0.70
2023-01-03T08:30:52.932Z,0.90
2023-01-03T08:33:27.968Z,0.80
2023-01-03T08:36:00.417Z,0.80
2023-01-03T08:38:33.930Z,0.80
2023-01-03T08:41:05.420Z,1.83
2023-01-03T08:43:41.728Z,1.50
2023-01-03T08:46:10.583Z,1.63
2023-01-03T08:48:41.136Z,1.10
2023-01-03T08:51:10.255Z,1.30
2023-01-03T08:53:37.392Z,1.00
2023-01-03T08:56:04.613Z,0.90
2023-01-03T08:58:37.917Z,0.90
2023-01-03T09:01:14.360Z,0.88
2023-01-03T09:03:41.871Z,0.95
2023-01-03T09:06:14.821Z,0.77
2023-01-03T09:08:45.094Z,0.95
2023-01-03T09:11:15.008Z,1.08
2023-01-03T09:13:44.819Z,1.30
2023-01-03T09:16:16.606Z,0.70
2023-01-03T09:18:46.295Z,0.82
2023-01-03T09:21:16.782Z,0.60
2023-01-03T09:23:46.837Z,0.75
2023-01-03T09:26:18.251Z,0.80
2023-01-03T09:28:51.325Z,0.73
2023-01-03T09:31:18.289Z,0.80
2023-01-03T09:33:48.215Z,0.90
2023-01-03T09:36:15.126Z,1.35
2023-01-03T09:38:42.932Z,0.90
2023-01-03T09:41:18.045Z,1.35
2023-01-03T09:43:50.685Z,1.15
2023-01-03T09:46:19.721Z,1.73
2023-01-03T09:48:52.566Z,1.58
2023-01-03T09:51:39.603Z,1.20
2023-01-03T09:54:45.419Z,1.50
2023-01-03T09:57:35.412Z,1.30
2023-01-03T10:00:21.086Z,1.20
2023-01-03T10:03:22.064Z,1.20
2023-01-03T10:05:54.417Z,1.48
2023-01-03T10:08:29.095Z,1.63
2023-01-03T10:11:14.823Z,1.40
2023-01-03T10:13:42.140Z,2.03
2023-01-03T10:16:19.232Z,1.60
2023-01-03T10:18:58.595Z,1.40
2023-01-03T10:21:37.543Z,1.17
2023-01-03T10:24:18.154Z,1.40
2023-01-03T10:26:50.249Z,1.60
2023-01-03T10:29:23.498Z,1.98
2023-01-03T10:31:54.030Z,1.60
2023-01-03T10:34:25.844Z,1.88
2023-01-03T10:36:55.679Z,2.05
2023-01-03T10:39:29.879Z,2.08
2023-01-03T10:41:58.240Z,2.05
2023-01-03T10:44:29.787Z,2.70
2023-01-03T10:47:03.260Z,2.15
2023-01-03T10:49:32.519Z,2.00
2023-01-03T10:52:19.157Z,1.95
2023-01-03T10:55:14.589Z,1.85
2023-01-03T10:58:04.112Z,1.92
2023-01-03T11:00:36.083Z,1.67
2023-01-03T11:03:14.231Z,1.75
2023-01-03T11:05:46.320Z,1.10
2023-01-03T11:08:16.805Z,1.20
2023-01-03T11:10:54.630Z,1.20
2023-01-03T11:13:29.523Z,1.17
2023-01-03T11:16:00.562Z,1.52
2023-01-03T11:18:31.845Z,1.60
2023-01-03T11:21:01.593Z,1.52
2023-01-03T11:23:31.461Z,1.58
2023-01-03T11:26:17.896Z,1.20
2023-01-03T11:28:53.632Z,1.42
2023-01-03T11:31:40.746Z,1.42
2023-01-03T11:34:08.235Z,1.13
2023-01-03T11:36:58.139Z,1.10
2023-01-03T11:39:33.207Z,1.17
2023-01-03T11:42:12.332Z,1.23
2023-01-03T11:44:48.209Z,1.20
2023-01-03T11:47:26.508Z,1.50
2023-01-03T11:50:05.295Z,0.93
2023-01-03T11:52:35.428Z,1.30
2023-01-03T11:55:20.833Z,1.10
2023-01-03T11:58:28.679Z,1.00
2023-01-03T12:01:02.474Z,1.30
2023-01-03T12:03:42.639Z,1.00
2023-01-03T12:06:39.017Z,1.35
2023-01-03T12:09:14.947Z,1.30
2023-01-03T12:12:02.003Z,1.38
2023-01-03T12:14:37.989Z,1.40
2023-01-03T12:17:09.123Z,1.45
2023-01-03T12:19:54.287Z,1.13
2023-01-03T12:22:30.223Z,1.00
2023-01-03T12:25:06.772Z,0.98
2023-01-03T12:27:39.489Z,1.13
2023-01-03T12:30:29.145Z,1.55
2023-01-03T12:32:59.998Z,1.30
2023-01-03T12:35:37.956Z,1.35
2023-01-03T12:38:13.225Z,1.15
2023-01-03T12:40:54.745Z,1.30
2023-01-03T12:43:32.974Z,1.83
2023-01-03T12:46:13.146Z,2.40
2023-01-03T12:49:22.720Z,2.35
2023-01-03T12:51:49.704Z,1.95
2023-01-03T12:54:24.538Z,1.45
2023-01-03T12:57:03.417Z,1.27
2023-01-03T12:59:50.530Z,1.27
2023-01-03T13:02:40.170Z,1.17
2023-01-03T13:05:18.276Z,0.98
2023-01-03T13:07:54.871Z,1.80
2023-01-03T13:10:28.435Z,1.38
2023-01-03T13:13:00.805Z,1.20
2023-01-03T13:15:36.943Z,1.45
2023-01-03T13:18:22.389Z,1.25
2023-01-03T13:20:53.272Z,1.30
2023-01-03T13:23:23.141Z,1.40
2023-01-03T13:26:10.707Z,1.40
2023-01-03T13:28:38.450Z,1.50
2023-01-03T13:31:17.610Z,1.80
2023-01-03T13:33:57.511Z,1.80
2023-01-03T13:36:25.866Z,1.80
2023-01-03T13:38:54.548Z,1.70
2023-01-03T13:41:39.481Z,1.88
2023-01-03T13:44:15.757Z,1.08
2023-01-03T13:46:45.851Z,0.95
2023-01-03T13:49:19.972Z,1.33
2023-01-03T13:51:54.163Z,0.85
2023-01-03T13:54:24.155Z,0.90
2023-01-03T13:56:52.929Z,0.90
2023-01-03T13:59:30.872Z,1.15
2023-01-03T14:02:02.605Z,1.25
2023-01-03T14:04:39.745Z,1.10
2023-01-03T14:07:24.925Z,1.10
2023-01-03T14:10:11.609Z,0.98
2023-01-03T14:12:44.546Z,1.05
2023-01-03T14:15:25.489Z,0.98
2023-01-03T14:17:58.631Z,1.20
2023-01-03T14:20:36.505Z,1.17
2023-01-03T14:23:48.818Z,1.10
2023-01-03T14:26:04.058Z,1.25
2023-01-03T14:28:35.464Z,0.77
2023-01-03T14:31:06.533Z,1.00
2023-01-03T14:33:40.831Z,1.10
2023-01-03T14:36:09.358Z,1.05
2023-01-03T14:38:39.884Z,1.00
2023-01-03T14:41:24.276Z,0.90
2023-01-03T14:43:58.927Z,1.08
2023-01-03T14:46:27.118Z,0.93
2023-01-03T14:49:03.092Z,1.00
2023-01-03T14:51:35.096Z,1.15
2023-01-03T14:54:02.831Z,0.90
2023-01-03T14:56:35.299Z,0.90
2023-01-03T14:59:05.670Z,1.10
2023-01-03T15:01:45.648Z,0.90
2023-01-03T15:04:17.541Z,0.90
2023-01-03T15:07:04.810Z,1.17
2023-01-03T15:09:36.693Z,0.90
2023-01-03T15:12:08.960Z,0.60
2023-01-03T15:14:39.532Z,0.90
2023-01-03T15:17:19.761Z,0.90
2023-01-03T15:19:54.107Z,0.80
2023-01-03T15:22:25.518Z,0.77
2023-01-03T15:25:08.928Z,0.82
2023-01-03T15:27:43.798Z,0.90
2023-01-03T15:30:23.675Z,0.90
2023-01-03T15:32:56.682Z,0.90
2023-01-03T15:35:33.247Z,0.88
2023-01-03T15:38:02.703Z,1.00
2023-01-03T15:40:34.572Z,0.75
2023-01-03T15:43:22.211Z,0.98
2023-01-03T15:46:09.941Z,1.02
2023-01-03T15:48:40.479Z,0.85
2023-01-03T15:51:10.148Z,0.80
2023-01-03T15:53:44.590Z,0.80
2023-01-03T15:56:18.849Z,0.93
2023-01-03T15:58:48.278Z,0.80
2023-01-03T16:01:22.687Z,0.70
2023-01-03T16:03:53.351Z,0.80
2023-01-03T16:06:23.634Z,1.10
2023-01-03T16:08:56.631Z,0.60
2023-01-03T16:11:34.406Z,1.00
2023-01-03T16:14:03.159Z,0.88
2023-01-03T16:16:38.614Z,1.00
2023-01-03T16:19:06.488Z,1.00
2023-01-03T16:21:33.594Z,0.80
2023-01-03T16:24:03.194Z,1.23
2023-01-03T16:26:35.639Z,0.70
2023-01-03T16:29:05.685Z,1.30
2023-01-03T16:31:34.406Z,1.02
2023-01-03T16:34:03.716Z,1.30
2023-01-03T16:36:38.313Z,1.20
2023-01-03T16:39:18.672Z,1.20
2023-01-03T16:42:06.599Z,1.17
2023-01-03T16:44:38.871Z,1.08
2023-01-03T16:47:15.855Z,0.90
2023-01-03T16:49:49.981Z,1.00
2023-01-03T16:52:23.230Z,1.17
2023-01-03T16:54:54.411Z,1.05
2023-01-03T16:57:24.979Z,1.10
2023-01-03T16:59:57.172Z,1.10
2023-01-03T17:02:27.512Z,1.13
2023-01-03T17:04:54.585Z,1.10
2023-01-03T17:07:27.002Z,1.50
2023-01-03T17:09:58.926Z,1.20
2023-01-03T17:12:31.987Z,1.30
2023-01-03T17:15:01.861Z,1.30
2023-01-03T17:17:32.122Z,1.35
2023-01-03T17:20:04.278Z,1.20
2023-01-03T17:22:35.291Z,1.10
2023-01-03T17:25:03.023Z,1.15
2023-01-03T17:27:35.655Z,1.50
2023-01-03T17:30:07.705Z,1.70
2023-01-03T17:32:36.744Z,1.00
2023-01-03T17:35:10.539Z,1.10
2023-01-03T17:38:13.945Z,1.58
2023-01-03T17:40:34.501Z,1.20
2023-01-03T17:43:02.312Z,1.52
2023-01-03T17:45:47.739Z,1.60
2023-01-03T17:48:33.104Z,1.38
2023-01-03T17:51:04.764Z,1.17
2023-01-03T17:53:37.975Z,1.50
2023-01-03T17:56:12.058Z,1.50
2023-01-03T17:58:49.256Z,1.77
2023-01-03T18:01:18.975Z,1.15
2023-01-03T18:03:48.903Z,1.13
2023-01-03T18:06:17.444Z,1.30
2023-01-03T18:08:51.151Z,1.40
2023-01-03T18:11:22.391Z,1.10
2023-01-03T18:13:53.012Z,1.20
2023-01-03T18:16:29.673Z,1.20
2023-01-03T18:18:56.652Z,1.15
2023-01-03T18:21:27.480Z,0.90
2023-01-03T18:23:59.548Z,1.13
2023-01-03T18:26:33.205Z,0.98
2023-01-03T18:29:03.570Z,1.30
2023-01-03T18:31:35.323Z,1.40
2023-01-03T18:34:05.056Z,1.30
2023-01-03T18:36:42.298Z,1.20
2023-01-03T18:39:16.258Z,1.38
2023-01-03T18:41:46.205Z,1.20
2023-01-03T18:44:20.768Z,1.20
2023-01-03T18:46:53.210Z,1.10
2023-01-03T18:49:22.999Z,0.95
2023-01-03T18:51:55.181Z,1.25
2023-01-03T18:54:27.432Z,1.08
2023-01-03T18:56:56.515Z,1.25
2023-01-03T18:59:30.576Z,1.20
2023-01-03T19:01:57.964Z,1.20
2023-01-03T19:04:27.640Z,1.30
2023-01-03T19:07:00.924Z,1.08
2023-01-03T19:09:33.904Z,1.60
2023-01-03T19:12:06.976Z,1.55
2023-01-03T19:14:43.434Z,1.02
2023-01-03T19:17:15.733Z,1.08
2023-01-03T19:19:45.116Z,1.10
2023-01-03T19:22:29.304Z,1.02
2023-01-03T19:25:01.364Z,1.27
2023-01-03T19:27:39.472Z,1.30
2023-01-03T19:30:10.530Z,1.50
2023-01-03T19:32:41.936Z,1.13
2023-01-03T19:35:20.936Z,1.20
2023-01-03T19:37:47.906Z,0.95
2023-01-03T19:40:16.804Z,1.13
2023-01-03T19:42:54.024Z,1.05
2023-01-03T19:45:27.740Z,1.20
2023-01-03T19:48:01.762Z,1.15
2023-01-03T19:50:37.235Z,1.20
2023-01-03T19:53:05.833Z,1.10
2023-01-03T19:55:33.799Z,1.17
2023-01-03T19:58:02.410Z,1.20
2023-01-03T20:00:37.291Z,1.00
2023-01-03T20:03:06.606Z,1.10
2023-01-03T20:05:37.277Z,0.90
2023-01-03T20:08:12.043Z,1.00
2023-01-03T20:10:46.187Z,1.08
2023-01-03T20:13:17.431Z,1.00
2023-01-03T20:15:44.709Z,1.13
2023-01-03T20:18:28.324Z,1.10
2023-01-03T20:20:56.812Z,1.00
2023-01-03T20:23:36.285Z,1.30
2023-01-03T20:26:03.699Z,1.23
2023-01-03T20:28:34.137Z,1.30
2023-01-03T20:31:08.300Z,1.30
2023-01-03T20:33:39.755Z,1.20
2023-01-03T20:36:16.320Z,1.08
2023-01-03T20:38:55.938Z,1.40
2023-01-03T20:41:38.914Z,0.98
2023-01-03T20:44:08.847Z,0.93
2023-01-03T20:46:41.318Z,0.82
2023-01-03T20:49:29.394Z,1.05
2023-01-03T20:51:59.335Z,1.10
2023-01-03T20:54:26.340Z,1.10
2023-01-03T20:56:56.583Z,1.00
2023-01-03T20:59:27.865Z,1.10
2023-01-03T21:01:58.131Z,1.10
2023-01-03T21:04:25.269Z,0.88
2023-01-03T21:06:53.056Z,1.02
2023-01-03T21:09:20.260Z,1.00
2023-01-03T21:11:50.384Z,1.20
2023-01-03T21:14:22.031Z,1.10
2023-01-03T21:16:53.763Z,0.90
2023-01-03T21:19:22.158Z,1.00
2023-01-03T21:21:50.394Z,0.90
2023-01-03T21:24:21.796Z,1.00
2023-01-03T21:26:51.806Z,1.00
2023-01-03T21:29:20.493Z,1.00
2023-01-03T21:31:50.406Z,1.10
2023-01-03T21:34:18.608Z,1.30
2023-01-03T21:36:48.861Z,1.05
2023-01-03T21:39:16.012Z,1.08
2023-01-03T21:42:01.621Z,1.13
2023-01-03T21:44:35.377Z,0.88
2023-01-03T21:47:05.818Z,0.80
2023-01-03T21:49:38.895Z,0.88
2023-01-03T21:52:06.622Z,0.77
2023-01-03T21:54:33.667Z,1.00
2023-01-03T21:57:08.201Z,1.10
2023-01-03T21:59:41.173Z,1.08
2023-01-03T22:02:35.934Z,0.88
2023-01-03T22:05:07.675Z,0.98
2023-01-03T22:07:40.297Z,0.88
2023-01-03T22:10:19.349Z,0.90
2023-01-03T22:12:50.839Z,1.15
2023-01-03T22:15:25.090Z,0.80
2023-01-03T22:17:55.982Z,0.98
2023-01-03T22:20:24.340Z,0.80
2023-01-03T22:22:54.729Z,0.90
2023-01-03T22:25:28.848Z,0.90
2023-01-03T22:27:58.729Z,1.08
2023-01-03T22:30:36.419Z,1.08
2023-01-03T22:33:06.701Z,0.85
2023-01-03T22:35:35.789Z,0.90
2023-01-03T22:38:06.430Z,1.00
2023-01-03T22:40:39.257Z,1.00
2023-01-03T22:43:12.511Z,0.98
2023-01-03T22:45:45.816Z,1.02
2023-01-03T22:48:18.638Z,1.30
2023-01-03T22:50:48.105Z,1.00
2023-01-03T22:53:15.743Z,0.95
2023-01-03T22:55:45.608Z,0.90
2023-01-03T22:58:18.289Z,0.80
2023-01-03T23:00:46.235Z,0.90
2023-01-03T23:03:19.101Z,0.90
2023-01-03T23:05:49.346Z,0.93
2023-01-03T23:08:19.457Z,1.00
2023-01-03T23:10:46.375Z,0.88
2023-01-03T23:13:22.361Z,0.80
2023-01-03T23:15:49.395Z,0.75
2023-01-03T23:18:22.416Z,1.00
2023-01-03T23:20:52.767Z,1.00
2023-01-03T23:23:22.222Z,1.05
2023-01-03T23:25:52.127Z,0.80
2023-01-03T23:28:22.548Z,0.90
2023-01-03T23:30:55.365Z,0.80
2023-01-03T23:33:25.208Z,1.00
2023-01-03T23:36:03.684Z,0.88
2023-01-03T23:38:33.030Z,0.85
2023-01-03T23:41:12.183Z,1.20
2023-01-03T23:43:48.196Z,0.90
2023-01-03T23:46:17.008Z,0.63
2023-01-03T23:48:47.605Z,0.75
2023-01-03T23:51:18.702Z,1.00
2023-01-03T23:53:49.223Z,1.00
2023-01-03T23:56:19.983Z,1.10
2023-01-03T23:58:47.023Z,1.17
